Time;durP1;ratioP1;P1;durP2;ratioP2;P2;SDS_P1;SDS_P2;PMS_P1;PMS_P2;Temp;Humidity;BMP_temperature;BMP_pressure;BME280_temperature;BME280_humidity;BME280_pressure;Samples;Min_cycle;Max_cycle;Signal;HPM_P1;HPM_P2
2022/11/15 00:00:51;;;;;;;7.70;6.43;;;10.70;99.90;;;;;;5067211;28;20487;-78
2022/11/15 00:03:22;;;;;;;9.50;5.40;;;10.70;99.90;;;;;;5065764;28;20487;-79
2022/11/15 00:05:49;;;;;;;7.57;5.83;;;10.70;99.90;;;;;;5065360;28;20438;-78
2022/11/15 00:08:15;;;;;;;8.00;5.23;;;10.70;99.90;;;;;;5064752;28;20519;-78
2022/11/15 00:10:43;;;;;;;8.33;5.60;;;10.80;99.90;;;;;;5065231;28;20558;-79
2022/11/15 00:13:11;;;;;;;7.20;5.73;;;10.70;99.90;;;;;;5064332;28;20939;-79
2022/11/15 00:15:40;;;;;;;7.10;5.67;;;10.80;99.90;;;;;;5065763;28;20459;-79
2022/11/15 00:18:12;;;;;;;6.23;4.83;;;10.80;99.90;;;;;;5065634;28;20570;-78
2022/11/15 00:20:39;;;;;;;9.90;6.33;;;10.90;99.90;;;;;;5052388;28;20484;-78
2022/11/15 00:23:06;;;;;;;7.53;5.20;;;10.90;99.90;;;;;;5046500;28;20539;-79
2022/11/15 00:25:33;;;;;;;8.53;6.20;;;10.90;99.90;;;;;;5046174;28;20456;-79
2022/11/15 00:28:01;;;;;;;6.67;5.43;;;10.90;99.90;;;;;;5045978;28;20568;-78
2022/11/15 00:30:28;;;;;;;9.17;6.20;;;11.00;99.90;;;;;;5046960;28;20537;-79
2022/11/15 00:32:57;;;;;;;7.70;5.17;;;10.90;99.90;;;;;;5047178;28;20544;-78
2022/11/15 00:35:23;;;;;;;6.00;5.30;;;11.00;99.90;;;;;;5046938;28;20480;-77
2022/11/15 00:37:50;;;;;;;9.03;5.07;;;11.10;99.90;;;;;;5045386;28;20592;-77
2022/11/15 00:40:17;;;;;;;5.63;4.27;;;11.10;99.90;;;;;;5045648;28;20487;-79
2022/11/15 00:42:44;;;;;;;6.50;4.70;;;11.10;99.90;;;;;;5045792;28;20508;-79
2022/11/15 00:45:11;;;;;;;7.80;5.43;;;11.10;99.90;;;;;;5045760;28;20544;-77
2022/11/15 00:47:38;;;;;;;6.67;4.83;;;11.20;99.90;;;;;;5045673;28;20491;-79
2022/11/15 00:50:07;;;;;;;6.47;4.57;;;11.20;99.90;;;;;;5045167;28;20498;-80
2022/11/15 00:52:33;;;;;;;8.47;4.87;;;11.20;99.90;;;;;;5046220;28;20840;-78
2022/11/15 00:55:00;;;;;;;8.20;5.30;;;11.20;99.90;;;;;;5043556;28;20540;-79
2022/11/15 00:57:27;;;;;;;6.67;5.07;;;11.30;99.90;;;;;;5045647;28;20996;-80
2022/11/15 00:59:54;;;;;;;7.10;5.57;;;11.20;99.90;;;;;;5044788;28;20468;-79
2022/11/15 01:02:21;;;;;;;8.27;5.80;;;11.20;99.90;;;;;;5045024;28;20456;-78
2022/11/15 01:04:47;;;;;;;8.23;5.70;;;11.30;99.90;;;;;;5045699;28;20457;-79
2022/11/15 01:07:16;;;;;;;10.63;6.00;;;11.40;99.90;;;;;;5045454;28;20450;-79
2022/11/15 01:09:43;;;;;;;8.07;5.10;;;11.40;99.90;;;;;;5044502;28;20843;-79
2022/11/15 01:12:09;;;;;;;9.10;5.80;;;11.50;99.90;;;;;;5045233;28;20523;-78
2022/11/15 01:14:36;;;;;;;11.17;5.93;;;11.60;99.90;;;;;;5045390;28;20517;-79
2022/11/15 01:17:03;;;;;;;7.30;5.10;;;11.60;99.90;;;;;;5045031;28;20456;-78
2022/11/15 01:19:30;;;;;;;6.40;4.70;;;11.60;99.90;;;;;;5043299;28;20571;-80
2022/11/15 01:21:57;;;;;;;11.03;5.33;;;11.70;99.90;;;;;;5044726;28;20544;-78
2022/11/15 01:24:25;;;;;;;7.67;5.33;;;11.60;99.90;;;;;;5044723;28;20531;-78
2022/11/15 01:26:52;;;;;;;10.33;5.63;;;11.70;99.90;;;;;;5045065;28;20512;-78
2022/11/15 01:29:19;;;;;;;8.97;5.90;;;11.70;99.90;;;;;;5044340;28;20494;-80
2022/11/15 01:31:45;;;;;;;10.00;5.67;;;11.90;99.90;;;;;;5044481;28;20533;-79
2022/11/15 01:34:12;;;;;;;6.80;5.20;;;11.90;99.90;;;;;;5045942;28;20547;-79
2022/11/15 01:36:39;;;;;;;6.87;5.33;;;12.00;99.90;;;;;;5044857;28;20524;-79
2022/11/15 01:39:06;;;;;;;5.83;5.00;;;12.00;99.90;;;;;;5043492;28;20966;-79
2022/11/15 01:41:34;;;;;;;8.27;5.90;;;12.10;99.90;;;;;;5024802;28;20491;-79
2022/11/15 01:44:34;;;;;;;6.13;5.20;;;12.10;99.90;;;;;;5025502;28;20922;-79
2022/11/15 01:47:06;;;;;;;8.07;5.20;;;12.10;99.90;;;;;;5025363;28;20456;-79
2022/11/15 01:49:36;;;;;;;5.80;4.67;;;12.20;99.90;;;;;;5027344;28;20482;-79
2022/11/15 01:52:08;;;;;;;7.07;5.07;;;12.20;99.90;;;;;;5043448;28;20485;-79
2022/11/15 01:54:37;;;;;;;9.10;5.40;;;12.20;99.90;;;;;;5042303;28;21523;-79
2022/11/15 01:57:09;;;;;;;6.60;4.70;;;12.20;99.90;;;;;;5042986;28;20460;-80
2022/11/15 01:59:37;;;;;;;5.80;4.33;;;12.20;99.90;;;;;;5042872;28;20469;-80
2022/11/15 02:02:03;;;;;;;7.00;5.60;;;12.20;99.90;;;;;;5045900;28;20502;-77
2022/11/15 02:04:34;;;;;;;6.83;4.90;;;12.10;99.90;;;;;;5051084;28;20461;-79
2022/11/15 02:07:03;;;;;;;10.23;4.10;;;12.20;99.90;;;;;;5043993;28;20537;-79
2022/11/15 02:09:31;;;;;;;6.40;4.50;;;12.20;99.90;;;;;;5043350;28;20489;-79
2022/11/15 02:11:58;;;;;;;5.27;4.40;;;12.20;99.90;;;;;;5043742;28;20525;-77
2022/11/15 02:14:28;;;;;;;8.00;5.60;;;12.20;99.90;;;;;;5044608;28;20526;-78
2022/11/15 02:17:02;;;;;;;5.60;4.37;;;12.20;99.90;;;;;;5043907;28;20448;-79
2022/11/15 02:19:54;;;;;;;6.10;4.90;;;12.20;99.90;;;;;;5042850;28;20947;-78
2022/11/15 02:22:36;;;;;;;6.27;4.73;;;12.20;99.90;;;;;;5045255;28;20476;-79
2022/11/15 02:25:18;;;;;;;6.57;4.27;;;12.20;99.90;;;;;;5044177;28;20468;-79
2022/11/15 02:28:27;;;;;;;6.20;4.40;;;12.20;99.90;;;;;;5043876;28;20891;-79
2022/11/15 02:31:01;;;;;;;8.30;4.40;;;12.20;99.90;;;;;;5023578;28;20567;-79
2022/11/15 02:33:37;;;;;;;5.03;4.10;;;12.20;99.90;;;;;;5044104;28;20433;-79
2022/11/15 02:36:10;;;;;;;6.80;4.80;;;12.20;99.90;;;;;;5043592;28;20458;-79
2022/11/15 02:38:43;;;;;;;6.10;4.90;;;12.30;99.90;;;;;;5042927;28;20998;-79
2022/11/15 02:41:14;;;;;;;7.60;4.77;;;12.30;99.90;;;;;;5043258;28;20471;-79
2022/11/15 02:43:58;;;;;;;7.43;5.10;;;12.20;99.90;;;;;;5043559;28;20469;-78
2022/11/15 02:49:17;;;;;;;6.90;4.70;;;12.30;99.90;;;;;;5047443;28;20587;-78
2022/11/15 02:51:47;;;;;;;8.00;4.40;;;12.30;99.90;;;;;;5047563;28;20938;-79
2022/11/15 02:54:21;;;;;;;5.53;4.33;;;12.20;99.90;;;;;;5046668;28;20908;-78
2022/11/15 02:56:48;;;;;;;6.20;4.10;;;12.20;99.90;;;;;;5046795;28;20447;-79
2022/11/15 02:59:37;;;;;;;4.90;3.93;;;12.20;99.90;;;;;;5046830;28;20455;-78
2022/11/15 03:02:20;;;;;;;8.03;4.60;;;12.10;99.90;;;;;;5031301;28;20488;-79
2022/11/15 03:04:55;;;;;;;7.20;4.83;;;12.10;99.90;;;;;;5047898;28;20432;-79
2022/11/15 03:07:30;;;;;;;5.83;4.53;;;12.10;99.90;;;;;;5047740;28;20456;-80
2022/11/15 03:10:05;;;;;;;5.97;4.53;;;12.10;99.90;;;;;;5046741;28;20488;-79
2022/11/15 03:12:40;;;;;;;7.60;4.40;;;12.10;99.90;;;;;;5048058;28;20521;-79
2022/11/15 03:15:11;;;;;;;6.03;4.50;;;12.10;99.90;;;;;;5047432;28;20496;-78
2022/11/15 03:17:45;;;;;;;8.27;5.00;;;12.10;99.90;;;;;;5047162;28;20942;-79
2022/11/15 03:20:14;;;;;;;7.57;4.90;;;12.10;99.90;;;;;;5046338;28;20521;-78
2022/11/15 03:22:44;;;;;;;10.10;5.60;;;12.20;99.90;;;;;;5047624;28;20892;-78
2022/11/15 03:25:18;;;;;;;7.43;5.07;;;12.20;99.90;;;;;;5047313;28;20883;-78
2022/11/15 03:27:51;;;;;;;7.40;4.90;;;12.20;99.90;;;;;;5041488;28;20587;-76
2022/11/15 03:30:19;;;;;;;8.80;5.50;;;12.20;99.90;;;;;;5047002;28;20945;-78
2022/11/15 03:32:51;;;;;;;8.20;5.07;;;12.20;99.90;;;;;;5047271;28;20474;-79
2022/11/15 03:35:21;;;;;;;7.70;5.30;;;12.20;99.90;;;;;;5047716;28;20950;-79
2022/11/15 03:37:55;;;;;;;6.80;5.20;;;12.10;99.90;;;;;;5046006;28;20475;-80
2022/11/15 03:40:26;;;;;;;7.50;5.70;;;12.20;99.90;;;;;;5046694;28;20557;-79
2022/11/15 03:43:01;;;;;;;7.77;5.30;;;12.20;99.90;;;;;;5047335;28;20486;-80
2022/11/15 03:45:32;;;;;;;7.10;5.70;;;12.20;99.90;;;;;;5046802;28;20545;-79
2022/11/15 03:48:06;;;;;;;7.33;5.50;;;12.20;99.90;;;;;;5046550;28;20499;-79
2022/11/15 03:50:33;;;;;;;8.70;5.00;;;12.20;99.90;;;;;;5046190;28;20562;-79
2022/11/15 03:53:00;;;;;;;7.40;4.83;;;12.20;99.90;;;;;;5047899;28;20871;-79
2022/11/15 03:55:27;;;;;;;6.07;5.10;;;12.20;99.90;;;;;;5044532;28;20525;-80
2022/11/15 03:57:58;;;;;;;6.40;5.00;;;12.20;99.90;;;;;;5045078;28;20458;-79
2022/11/15 04:00:25;;;;;;;5.73;5.10;;;12.20;99.90;;;;;;5045939;28;21030;-79
2022/11/15 04:02:52;;;;;;;8.17;5.67;;;12.30;99.90;;;;;;5046790;28;20509;-80
2022/11/15 04:05:20;;;;;;;7.47;5.30;;;12.30;99.90;;;;;;5047098;28;20476;-79
2022/11/15 04:07:47;;;;;;;7.70;5.67;;;12.30;99.90;;;;;;5046434;28;20545;-79
2022/11/15 04:10:14;;;;;;;6.70;5.03;;;12.30;99.90;;;;;;5046219;28;20525;-80
2022/11/15 04:12:43;;;;;;;6.40;5.47;;;12.30;99.90;;;;;;5046974;28;20545;-80
2022/11/15 04:15:12;;;;;;;8.80;5.07;;;12.20;99.90;;;;;;5050442;28;20480;-78
2022/11/15 04:17:40;;;;;;;5.90;4.33;;;12.20;99.90;;;;;;5050289;28;20480;-79
2022/11/15 04:25:42;;;;;;;5.40;4.30;;;12.20;99.90;;;;;;5046329;28;20472;-80
2022/11/15 04:28:10;;;;;;;6.37;4.70;;;12.30;99.90;;;;;;5045040;28;20530;-78
2022/11/15 04:30:37;;;;;;;6.90;5.13;;;12.20;99.90;;;;;;5046000;28;20490;-79
2022/11/15 04:33:04;;;;;;;6.40;4.33;;;12.20;99.90;;;;;;5045899;28;20451;-78
2022/11/15 04:35:31;;;;;;;7.17;5.60;;;12.20;99.90;;;;;;5045458;28;20533;-79
2022/11/15 04:38:00;;;;;;;7.40;4.97;;;12.30;99.90;;;;;;5045582;28;21009;-78
2022/11/15 04:40:26;;;;;;;5.53;4.63;;;12.30;99.90;;;;;;5045463;28;20900;-77
2022/11/15 04:42:53;;;;;;;7.27;4.40;;;12.30;99.90;;;;;;5046275;28;20521;-79
2022/11/15 04:45:20;;;;;;;10.73;5.17;;;12.30;99.90;;;;;;5045506;28;20495;-79
2022/11/15 04:47:48;;;;;;;8.77;5.50;;;12.30;99.90;;;;;;5045033;28;20483;-79
2022/11/15 04:50:16;;;;;;;7.90;4.90;;;12.30;99.90;;;;;;5045100;28;20559;-79
2022/11/15 04:52:43;;;;;;;5.40;4.83;;;12.40;99.90;;;;;;5044795;28;20872;-79
2022/11/15 04:55:12;;;;;;;6.70;4.73;;;12.40;99.90;;;;;;5043663;28;20481;-79
2022/11/15 04:57:39;;;;;;;6.33;4.63;;;12.40;99.90;;;;;;5045533;28;20453;-78
2022/11/15 05:00:08;;;;;;;6.53;4.87;;;12.50;99.90;;;;;;5045166;28;20554;-79
2022/11/15 05:05:19;;;;;;;7.27;5.00;;;12.50;99.90;;;;;;5045009;28;20465;-79
2022/11/15 05:07:46;;;;;;;6.30;5.07;;;12.50;99.90;;;;;;5045016;28;20520;-79
2022/11/15 05:10:14;;;;;;;6.97;5.33;;;12.50;99.90;;;;;;5043449;28;20651;-79
2022/11/15 05:12:41;;;;;;;5.77;4.30;;;12.60;99.90;;;;;;5044337;28;20470;-78
2022/11/15 05:15:09;;;;;;;7.30;5.30;;;12.60;99.90;;;;;;5045429;28;20477;-80
2022/11/15 05:17:35;;;;;;;5.63;4.90;;;12.60;99.90;;;;;;5043875;28;20522;-78
2022/11/15 05:20:03;;;;;;;6.20;4.37;;;12.60;99.90;;;;;;5037274;28;20479;-77
2022/11/15 05:22:29;;;;;;;6.53;5.83;;;12.60;99.90;;;;;;5126051;22;20506;-80
2022/11/15 05:24:56;;;;;;;7.53;5.40;;;12.60;99.90;;;;;;5112631;28;20515;-81
2022/11/15 05:27:24;;;;;;;5.37;4.67;;;12.60;99.90;;;;;;5111664;28;20465;-79
2022/11/15 05:29:51;;;;;;;6.53;5.27;;;12.60;99.90;;;;;;5110765;28;20579;-81
2022/11/15 05:32:18;;;;;;;7.43;5.30;;;12.60;99.90;;;;;;5110675;28;20543;-80
2022/11/15 05:34:46;;;;;;;6.43;5.20;;;12.70;99.90;;;;;;5111462;28;20512;-80
2022/11/15 05:37:13;;;;;;;5.13;4.63;;;12.70;99.90;;;;;;5111624;28;20499;-79
2022/11/15 05:39:40;;;;;;;6.67;4.93;;;12.70;99.90;;;;;;5110305;28;20480;-79
2022/11/15 05:42:10;;;;;;;6.27;5.23;;;12.70;99.90;;;;;;5111992;28;20468;-79
2022/11/15 05:44:44;;;;;;;8.10;6.17;;;12.70;99.90;;;;;;5110836;28;20515;-81
2022/11/15 05:47:15;;;;;;;6.03;5.03;;;12.70;99.90;;;;;;5110371;28;20482;-80
2022/11/15 05:49:45;;;;;;;7.63;5.20;;;12.70;99.90;;;;;;5110035;28;20535;-80
2022/11/15 05:52:15;;;;;;;6.60;5.37;;;12.80;99.90;;;;;;5111492;28;20518;-81
2022/11/15 05:54:43;;;;;;;6.37;5.73;;;12.80;99.90;;;;;;5110485;28;20452;-81
2022/11/15 05:57:10;;;;;;;6.63;5.90;;;12.80;99.90;;;;;;5110909;28;20469;-79
2022/11/15 05:59:40;;;;;;;6.90;6.20;;;12.80;99.90;;;;;;5110437;28;20465;-82
2022/11/15 06:02:07;;;;;;;6.87;5.27;;;12.90;99.90;;;;;;5111238;28;20837;-79
2022/11/15 06:04:34;;;;;;;11.70;5.77;;;12.80;99.90;;;;;;5109648;28;20459;-81
2022/11/15 06:07:01;;;;;;;7.33;5.80;;;12.90;99.90;;;;;;5108454;28;20488;-81
2022/11/15 06:09:28;;;;;;;8.50;5.33;;;12.90;99.90;;;;;;5108411;28;20473;-79
2022/11/15 06:11:55;;;;;;;5.90;5.20;;;12.90;99.90;;;;;;5108333;28;20478;-80
2022/11/15 06:14:21;;;;;;;5.83;5.23;;;12.90;99.90;;;;;;5107883;28;20506;-79
2022/11/15 06:16:50;;;;;;;6.00;5.40;;;12.80;99.90;;;;;;5107979;28;20539;-79
2022/11/15 06:19:16;;;;;;;7.63;5.17;;;12.80;99.90;;;;;;5108215;28;20442;-80
2022/11/15 06:21:43;;;;;;;6.40;5.20;;;12.80;99.90;;;;;;5111747;28;20553;-80
2022/11/15 06:24:10;;;;;;;7.20;4.87;;;12.80;99.90;;;;;;5114845;28;20469;-80
2022/11/15 06:26:37;;;;;;;8.17;5.43;;;12.80;99.90;;;;;;5113660;28;20507;-80
2022/11/15 06:29:04;;;;;;;5.53;4.90;;;12.80;99.90;;;;;;5113292;28;20484;-80
2022/11/15 06:31:31;;;;;;;5.30;4.50;;;12.70;99.90;;;;;;5114349;28;20516;-80
2022/11/15 06:33:59;;;;;;;6.10;4.63;;;12.70;99.90;;;;;;5114605;28;20482;-80
2022/11/15 06:36:26;;;;;;;5.83;5.23;;;12.80;99.90;;;;;;5116720;28;20559;-79
2022/11/15 06:38:53;;;;;;;6.27;4.63;;;12.70;99.90;;;;;;5117637;28;20442;-82
2022/11/15 06:41:21;;;;;;;5.00;4.30;;;12.80;99.90;;;;;;5118241;28;20521;-81
2022/11/15 06:43:47;;;;;;;5.67;4.43;;;12.70;99.90;;;;;;5117780;28;20470;-80
2022/11/15 06:46:14;;;;;;;5.37;4.87;;;12.70;99.90;;;;;;5117795;28;20484;-83
2022/11/15 06:48:41;;;;;;;5.73;5.13;;;12.80;99.90;;;;;;5114173;28;20477;-82
2022/11/15 06:51:09;;;;;;;5.03;4.40;;;12.70;99.90;;;;;;5113551;28;20560;-80
2022/11/15 06:53:36;;;;;;;4.93;4.10;;;12.70;99.90;;;;;;5116803;28;20488;-80
2022/11/15 06:56:04;;;;;;;6.63;4.10;;;12.70;99.90;;;;;;5117605;28;20467;-79
2022/11/15 06:58:32;;;;;;;4.70;4.03;;;12.70;99.90;;;;;;5116758;28;20511;-81
2022/11/15 07:01:02;;;;;;;4.20;3.30;;;12.80;99.90;;;;;;5112835;28;21084;-81
2022/11/15 07:03:29;;;;;;;3.57;3.27;;;12.70;99.90;;;;;;5090296;28;20528;-80
2022/11/15 07:05:57;;;;;;;3.70;3.30;;;12.80;99.90;;;;;;5086789;28;20478;-81
2022/11/15 07:08:29;;;;;;;3.97;3.47;;;12.80;99.90;;;;;;5088960;28;20443;-81
2022/11/15 07:10:59;;;;;;;3.10;2.40;;;12.80;99.90;;;;;;5106453;28;20483;-80
2022/11/15 07:13:26;;;;;;;5.30;3.07;;;12.80;99.90;;;;;;5107498;28;20471;-80
2022/11/15 07:15:53;;;;;;;4.10;3.50;;;12.80;99.90;;;;;;5107181;28;20457;-79
2022/11/15 07:18:20;;;;;;;3.83;2.90;;;12.80;99.90;;;;;;5104447;28;20499;-78
2022/11/15 07:20:47;;;;;;;4.50;2.90;;;12.80;99.90;;;;;;5094727;28;20538;-82
2022/11/15 07:23:14;;;;;;;4.00;2.90;;;12.90;99.90;;;;;;5096325;28;20464;-81
2022/11/15 07:25:42;;;;;;;3.90;2.30;;;12.90;99.90;;;;;;5098170;28;20449;-82
2022/11/15 07:28:09;;;;;;;5.80;3.20;;;12.90;99.90;;;;;;5094919;28;20548;-79
2022/11/15 07:30:36;;;;;;;3.10;2.40;;;12.90;99.90;;;;;;5097960;28;20566;-81
2022/11/15 07:33:03;;;;;;;3.57;2.63;;;13.00;99.90;;;;;;5097274;28;20452;-82
2022/11/15 07:35:31;;;;;;;5.30;2.50;;;13.00;99.90;;;;;;5103058;28;20532;-79
2022/11/15 07:37:59;;;;;;;3.60;2.47;;;13.00;99.90;;;;;;5091859;28;20451;-79
2022/11/15 07:40:27;;;;;;;4.33;3.13;;;13.00;99.90;;;;;;5095643;28;20515;-81
2022/11/15 07:43:00;;;;;;;3.87;2.33;;;13.10;99.90;;;;;;5106562;28;20475;-84
2022/11/15 07:45:27;;;;;;;5.30;2.43;;;13.00;99.90;;;;;;5093468;28;20468;-80
2022/11/15 07:47:55;;;;;;;4.57;2.17;;;13.00;99.90;;;;;;5100493;28;20447;-82
2022/11/15 07:50:23;;;;;;;3.00;2.13;;;13.00;99.90;;;;;;5100427;28;20561;-79
2022/11/15 07:52:55;;;;;;;2.90;1.80;;;13.00;99.90;;;;;;5101188;28;20477;-80
2022/11/15 07:55:23;;;;;;;3.07;1.90;;;13.00;99.90;;;;;;5102856;28;20431;-82
2022/11/15 07:57:49;;;;;;;3.27;2.53;;;12.90;99.90;;;;;;5106041;28;20449;-80
2022/11/15 08:00:19;;;;;;;5.13;2.50;;;12.90;99.90;;;;;;5104534;28;20496;-83
2022/11/15 08:02:46;;;;;;;2.70;2.30;;;12.80;99.90;;;;;;5095584;28;20502;-82
2022/11/15 08:05:14;;;;;;;5.83;2.00;;;12.90;99.90;;;;;;5106203;28;20819;-82
2022/11/15 08:07:41;;;;;;;3.57;2.00;;;12.90;99.90;;;;;;5099192;28;20494;-81
2022/11/15 08:10:09;;;;;;;2.70;1.83;;;12.90;99.90;;;;;;5105176;28;20515;-79
2022/11/15 08:12:35;;;;;;;3.80;2.00;;;12.90;99.90;;;;;;5107004;28;20481;-80
2022/11/15 08:15:02;;;;;;;3.23;1.60;;;13.00;99.90;;;;;;5106481;28;20457;-82
2022/11/15 08:17:32;;;;;;;3.03;2.20;;;12.90;99.90;;;;;;5106255;28;20449;-81
2022/11/15 08:19:59;;;;;;;3.10;1.70;;;13.00;99.90;;;;;;5105044;28;20561;-80
2022/11/15 08:22:26;;;;;;;2.50;1.70;;;13.00;99.90;;;;;;5093889;28;20511;-81
2022/11/15 08:24:53;;;;;;;4.60;2.20;;;13.00;99.90;;;;;;5086009;28;20449;-80
2022/11/15 08:27:19;;;;;;;4.33;2.13;;;13.00;99.90;;;;;;5087772;28;20877;-80
2022/11/15 08:29:48;;;;;;;4.13;2.00;;;13.00;99.90;;;;;;5090713;28;20482;-80
2022/11/15 08:32:15;;;;;;;3.00;1.63;;;13.10;99.90;;;;;;5098094;28;20499;-80
2022/11/15 08:34:43;;;;;;;2.80;1.50;;;13.10;99.90;;;;;;5091959;28;20471;-80
2022/11/15 08:37:09;;;;;;;3.60;1.80;;;13.20;99.90;;;;;;5104000;28;20572;-82
2022/11/15 08:39:37;;;;;;;2.70;1.67;;;13.20;99.90;;;;;;5104478;28;20516;-80
2022/11/15 08:42:04;;;;;;;2.60;1.73;;;13.20;99.90;;;;;;5103005;28;20462;-82
2022/11/15 08:44:31;;;;;;;2.67;1.90;;;13.30;99.90;;;;;;5102569;28;20530;-80
2022/11/15 08:46:58;;;;;;;2.40;1.87;;;13.40;99.90;;;;;;5106253;28;20528;-84
2022/11/15 08:49:25;;;;;;;2.00;1.30;;;13.40;99.90;;;;;;5102975;28;20459;-83
2022/11/15 08:51:53;;;;;;;2.50;1.50;;;13.40;99.90;;;;;;5104298;28;20520;-82
2022/11/15 08:54:20;;;;;;;2.30;1.43;;;13.40;99.90;;;;;;5103980;28;20456;-81
2022/11/15 08:56:47;;;;;;;2.63;1.53;;;13.40;99.90;;;;;;5101614;28;20448;-85
2022/11/15 08:59:13;;;;;;;2.27;1.37;;;13.40;99.90;;;;;;5100832;28;20532;-83
2022/11/15 09:01:40;;;;;;;3.40;1.57;;;13.50;99.90;;;;;;5102405;28;20538;-84
2022/11/15 09:04:07;;;;;;;2.50;1.63;;;13.40;99.90;;;;;;5104588;28;20860;-81
2022/11/15 09:06:34;;;;;;;2.53;1.40;;;13.50;99.90;;;;;;5102803;28;20452;-80
2022/11/15 09:09:03;;;;;;;3.97;1.63;;;13.50;99.90;;;;;;5102242;28;20463;-82
2022/11/15 09:11:30;;;;;;;3.40;1.40;;;13.50;99.90;;;;;;5104133;28;20547;-81
2022/11/15 09:13:57;;;;;;;2.37;1.47;;;13.50;99.90;;;;;;5104023;28;20488;-84
2022/11/15 09:16:24;;;;;;;2.80;1.60;;;13.50;99.90;;;;;;5102101;28;20537;-82
2022/11/15 09:18:50;;;;;;;2.60;1.53;;;13.50;99.90;;;;;;5101860;28;20529;-81
2022/11/15 09:21:17;;;;;;;2.10;1.20;;;13.60;99.90;;;;;;5100628;28;20509;-81
2022/11/15 09:23:44;;;;;;;2.77;1.30;;;13.60;99.90;;;;;;5102572;28;20458;-82
2022/11/15 09:26:12;;;;;;;2.53;1.33;;;13.60;99.90;;;;;;5102228;28;21199;-84
2022/11/15 09:28:41;;;;;;;3.33;1.70;;;13.60;99.90;;;;;;5101766;28;20531;-82
2022/11/15 09:31:09;;;;;;;4.67;1.67;;;13.70;99.90;;;;;;5101472;28;20492;-81
2022/11/15 09:33:35;;;;;;;2.53;1.20;;;13.80;99.90;;;;;;5099491;28;20546;-86
2022/11/15 09:36:03;;;;;;;2.17;1.20;;;13.70;99.90;;;;;;5102006;28;20814;-83
2022/11/15 09:38:30;;;;;;;4.90;1.20;;;13.70;99.90;;;;;;5101957;28;20553;-84
2022/11/15 09:41:26;;;;;;;1.90;1.20;;;13.70;99.90;;;;;;5103363;28;20906;-84
2022/11/15 09:44:08;;;;;;;2.67;1.30;;;13.70;99.90;;;;;;5101548;28;20531;-82
2022/11/15 09:46:43;;;;;;;2.00;1.03;;;13.80;99.90;;;;;;5102664;28;20458;-84
2022/11/15 09:49:14;;;;;;;3.60;1.10;;;13.80;99.90;;;;;;5103690;28;20533;-85
2022/11/15 09:51:47;;;;;;;2.30;1.20;;;13.80;99.90;;;;;;5101875;28;20518;-85
2022/11/15 09:54:24;;;;;;;2.30;1.30;;;13.80;99.90;;;;;;5110071;28;20450;-84
2022/11/15 09:56:53;;;;;;;2.00;1.10;;;13.90;99.90;;;;;;5108947;28;20532;-80
2022/11/15 09:59:42;;;;;;;2.60;1.40;;;14.00;99.90;;;;;;5105957;28;20445;-79
2022/11/15 10:02:22;;;;;;;3.30;1.63;;;14.10;99.90;;;;;;5086809;28;20527;-78
2022/11/15 10:04:49;;;;;;;2.40;1.20;;;14.10;99.90;;;;;;5079247;28;20439;-79
2022/11/15 10:07:24;;;;;;;2.53;1.13;;;14.10;99.90;;;;;;5101745;28;20441;-82
2022/11/15 10:09:55;;;;;;;3.13;1.20;;;14.00;99.90;;;;;;5100220;28;20911;-79
2022/11/15 10:12:23;;;;;;;5.63;2.40;;;14.10;99.90;;;;;;5100383;28;20490;-80
2022/11/15 10:14:57;;;;;;;2.70;1.87;;;14.10;99.90;;;;;;5101787;28;20540;-80
2022/11/15 10:17:38;;;;;;;2.70;1.50;;;14.00;99.90;;;;;;5102815;28;20496;-80
2022/11/15 10:20:14;;;;;;;2.20;1.20;;;14.20;99.90;;;;;;5102644;28;20509;-79
2022/11/15 10:22:47;;;;;;;3.23;1.23;;;14.10;99.90;;;;;;5101011;28;20521;-80
2022/11/15 10:25:19;;;;;;;2.60;1.00;;;14.20;99.90;;;;;;5100375;28;20471;-79
2022/11/15 10:27:54;;;;;;;4.43;2.20;;;14.30;99.90;;;;;;5100725;28;20502;-79
2022/11/15 10:30:21;;;;;;;5.80;3.40;;;14.30;99.90;;;;;;5087252;28;20525;-79
2022/11/15 10:32:49;;;;;;;3.90;2.00;;;14.50;99.90;;;;;;5100580;28;20520;-82
2022/11/15 10:35:34;;;;;;;2.50;1.97;;;14.60;99.90;;;;;;5098941;28;20448;-79
2022/11/15 10:38:07;;;;;;;4.07;1.40;;;14.60;99.90;;;;;;5100486;28;20456;-79
2022/11/15 10:40:34;;;;;;;3.10;2.13;;;14.60;99.90;;;;;;5100562;28;21053;-79
2022/11/15 10:43:17;;;;;;;3.40;1.40;;;14.70;99.90;;;;;;5099067;28;20514;-78
2022/11/15 10:45:45;;;;;;;2.77;1.20;;;14.60;99.90;;;;;;5097920;28;20462;-79
2022/11/15 10:48:24;;;;;;;3.27;1.90;;;14.70;99.90;;;;;;5098162;28;20817;-79
2022/11/15 10:50:53;;;;;;;3.03;1.30;;;14.80;99.90;;;;;;5098316;28;20519;-80
2022/11/15 10:53:28;;;;;;;17.83;8.63;;;14.80;99.90;;;;;;5100165;28;20444;-79
2022/11/15 10:55:58;;;;;;;3.23;1.47;;;15.00;99.90;;;;;;5099368;28;20508;-78
2022/11/15 10:58:37;;;;;;;5.47;1.70;;;15.00;99.90;;;;;;5100182;28;20536;-79
2022/11/15 11:01:12;;;;;;;4.00;1.50;;;15.20;99.90;;;;;;5098747;28;20839;-79
2022/11/15 11:03:41;;;;;;;2.93;1.57;;;15.30;99.90;;;;;;5099976;28;20508;-79
2022/11/15 11:06:11;;;;;;;3.13;1.50;;;15.70;99.90;;;;;;5097562;28;20459;-79
2022/11/15 11:08:38;;;;;;;3.30;1.00;;;16.60;99.90;;;;;;5101325;28;20503;-79
2022/11/15 11:11:06;;;;;;;3.63;1.10;;;18.30;99.90;;;;;;5105212;28;20569;-79
2022/11/15 11:13:36;;;;;;;4.03;1.00;;;20.00;99.90;;;;;;5105672;28;20479;-80
2022/11/15 11:16:41;;;;;;;2.50;1.27;;;21.00;99.90;;;;;;5104233;28;20453;-78
2022/11/15 11:19:19;;;;;;;3.60;1.37;;;22.00;99.90;;;;;;5103911;28;20508;-79
2022/11/15 11:21:56;;;;;;;3.73;1.10;;;23.10;99.90;;;;;;5105442;28;20597;-81
2022/11/15 11:24:30;;;;;;;3.63;1.60;;;23.10;99.90;;;;;;5105909;28;20850;-79
2022/11/15 11:27:13;;;;;;;3.80;0.97;;;22.90;99.90;;;;;;5104246;28;20520;-79
2022/11/15 11:29:53;;;;;;;42.13;28.63;;;23.10;99.90;;;;;;5103874;28;20873;-78
2022/11/15 11:32:35;;;;;;;5.90;2.50;;;23.20;99.90;;;;;;5102763;28;20481;-80
2022/11/15 11:35:12;;;;;;;2.70;1.50;;;23.70;99.90;;;;;;5095142;28;20541;-79
2022/11/15 11:37:49;;;;;;;3.73;1.73;;;23.60;99.90;;;;;;5100029;28;20471;-80
2022/11/15 11:40:28;;;;;;;2.33;1.00;;;23.30;99.90;;;;;;5097532;28;20790;-79
2022/11/15 11:43:01;;;;;;;3.00;1.10;;;23.70;99.90;;;;;;5096498;28;20465;-78
2022/11/15 11:45:49;;;;;;;2.50;1.20;;;24.70;99.90;;;;;;5095689;28;20460;-80
2022/11/15 11:48:25;;;;;;;2.30;1.00;;;25.50;99.40;;;;;;5096007;28;20521;-81
2022/11/15 11:50:52;;;;;;;2.03;1.13;;;26.40;97.00;;;;;;5089554;28;20489;-80
2022/11/15 11:53:30;;;;;;;6.03;1.67;;;26.90;92.80;;;;;;5086356;28;20449;-79
2022/11/15 11:56:02;;;;;;;2.97;1.20;;;25.70;91.10;;;;;;5088665;28;20453;-78
2022/11/15 11:58:35;;;;;;;3.23;0.90;;;25.20;90.10;;;;;;5095818;28;20427;-80
2022/11/15 12:01:10;;;;;;;2.33;0.90;;;24.20;85.70;;;;;;5095731;28;20472;-78
2022/11/15 12:03:43;;;;;;;2.10;0.97;;;23.20;84.80;;;;;;5088456;28;20941;-81
2022/11/15 12:06:31;;;;;;;3.97;1.33;;;22.20;88.20;;;;;;5088068;28;20546;-82
2022/11/15 12:09:03;;;;;;;2.53;0.90;;;21.10;87.00;;;;;;5091970;28;20447;-79
2022/11/15 12:11:36;;;;;;;2.77;1.00;;;20.20;90.60;;;;;;5099432;28;21039;-81
2022/11/15 12:14:10;;;;;;;3.10;1.60;;;19.80;91.10;;;;;;5095212;28;20524;-78
2022/11/15 12:16:41;;;;;;;4.83;2.50;;;19.30;91.50;;;;;;5087287;28;20442;-80
2022/11/15 12:19:09;;;;;;;3.50;1.20;;;19.00;92.60;;;;;;5086499;28;21114;-78
2022/11/15 12:21:44;;;;;;;2.17;1.00;;;18.70;92.60;;;;;;5082344;28;20565;-78
2022/11/15 12:24:19;;;;;;;7.50;1.20;;;18.40;93.40;;;;;;5083741;28;20455;-79
2022/11/15 12:26:52;;;;;;;3.40;0.90;;;18.10;94.80;;;;;;5088077;28;20521;-78
2022/11/15 12:29:26;;;;;;;4.73;1.10;;;17.70;93.90;;;;;;5099670;28;20482;-80
2022/11/15 12:31:59;;;;;;;4.10;0.87;;;17.50;95.20;;;;;;5092976;28;20588;-79
2022/11/15 12:34:40;;;;;;;4.00;0.90;;;17.60;98.10;;;;;;5077943;28;20447;-79
2022/11/15 12:37:50;;;;;;;5.57;1.20;;;17.60;97.80;;;;;;5082472;28;20450;-78
2022/11/15 12:40:25;;;;;;;3.30;1.10;;;17.50;97.90;;;;;;5025086;28;20509;-82
2022/11/15 12:43:04;;;;;;;2.87;1.00;;;17.30;97.50;;;;;;5030260;28;20531;-80
2022/11/15 12:45:33;;;;;;;2.20;0.90;;;17.10;98.10;;;;;;5070815;28;20467;-79
2022/11/15 12:48:34;;;;;;;2.27;0.80;;;16.80;98.70;;;;;;5091520;28;20481;-79
2022/11/15 12:51:02;;;;;;;3.50;1.30;;;16.80;99.10;;;;;;5084205;28;20534;-80
2022/11/15 12:53:30;;;;;;;5.23;2.57;;;16.90;99.90;;;;;;5082019;28;21162;-78
2022/11/15 12:56:26;;;;;;;6.40;1.20;;;16.60;99.90;;;;;;5075847;28;20904;-78
2022/11/15 12:58:55;;;;;;;2.07;0.90;;;16.60;99.90;;;;;;5080940;28;20536;-79
2022/11/15 13:01:58;;;;;;;2.60;0.90;;;16.60;99.90;;;;;;5084718;28;20467;-78
2022/11/15 13:04:28;;;;;;;2.63;1.10;;;16.40;99.90;;;;;;5095952;28;20995;-79
2022/11/15 13:06:58;;;;;;;2.30;0.90;;;16.20;99.90;;;;;;5080741;28;20455;-78
2022/11/15 13:10:04;;;;;;;4.03;1.10;;;16.00;99.90;;;;;;5080466;28;20798;-77
2022/11/15 13:12:52;;;;;;;2.83;0.90;;;16.20;99.90;;;;;;5081116;28;20999;-78
2022/11/15 13:16:00;;;;;;;3.53;1.40;;;16.10;99.90;;;;;;5083584;28;20544;-79